sensor_id;sensor_type;location;lat;lon;timestamp;pressure;altitude;pressure_sealevel;temperature;humidity
76687;BME280;65615;47.378;19.344;2024-03-08T05:18:47;100561.75;;;5.11;100.00
76687;BME280;65615;47.378;19.344;2024-03-08T05:22:50;100561.75;;;5.11;100.00
76687;BME280;65615;47.378;19.344;2024-03-08T05:26:54;100569.84;;;4.50;100.00
76687;BME280;65615;47.378;19.344;2024-03-08T05:30:57;100566.63;;;4.70;100.00
76687;BME280;65615;47.378;19.344;2024-03-08T05:35:00;100566.84;;;4.67;100.00
76687;BME280;65615;47.378;19.344;2024-03-08T05:39:03;100571.84;;;4.70;100.00
76687;BME280;65615;47.378;19.344;2024-03-08T05:43:08;100583.53;;;4.77;100.00
76687;BME280;65615;47.378;19.344;2024-03-08T05:47:12;100589.03;;;4.85;100.00
76687;BME280;65615;47.378;19.344;2024-03-08T05:51:14;100592.16;;;4.90;100.00
76687;BME280;65615;47.378;19.344;2024-03-08T05:55:18;100593.09;;;4.89;100.00
76687;BME280;65615;47.378;19.344;2024-03-08T05:59:21;100592.81;;;4.81;100.00
76687;BME280;65615;47.378;19.344;2024-03-08T06:03:26;100598.78;;;4.83;100.00
76687;BME280;65615;47.378;19.344;2024-03-08T06:07:29;100602.84;;;4.87;100.00
76687;BME280;65615;47.378;19.344;2024-03-08T06:11:32;100596.53;;;4.79;100.00
76687;BME280;65615;47.378;19.344;2024-03-08T06:15:35;100602.13;;;4.85;100.00
76687;BME280;65615;47.378;19.344;2024-03-08T06:19:38;100598.41;;;5.11;100.00
76687;BME280;65615;47.378;19.344;2024-03-08T06:23:41;100604.84;;;4.84;100.00
76687;BME280;65615;47.378;19.344;2024-03-08T06:27:44;100603.44;;;5.14;100.00
76687;BME280;65615;47.378;19.344;2024-03-08T06:31:49;100612.34;;;5.12;100.00
76687;BME280;65615;47.378;19.344;2024-03-08T06:35:55;100612.41;;;4.99;100.00
76687;BME280;65615;47.378;19.344;2024-03-08T06:40:02;100614.75;;;4.91;100.00
76687;BME280;65615;47.378;19.344;2024-03-08T06:44:10;100616.25;;;5.06;100.00
76687;BME280;65615;47.378;19.344;2024-03-08T06:48:17;100617.09;;;5.07;100.00
76687;BME280;65615;47.378;19.344;2024-03-08T06:52:20;100617.38;;;4.91;100.00
76687;BME280;65615;47.378;19.344;2024-03-08T06:56:25;100614.66;;;4.93;100.00
76687;BME280;65615;47.378;19.344;2024-03-08T07:00:28;100629.19;;;4.97;100.00
76687;BME280;65615;47.378;19.344;2024-03-08T07:04:33;100630.06;;;5.08;100.00
76687;BME280;65615;47.378;19.344;2024-03-08T07:08:38;100631.34;;;5.27;100.00
76687;BME280;65615;47.378;19.344;2024-03-08T07:12:42;100615.94;;;5.22;100.00
76687;BME280;65615;47.378;19.344;2024-03-08T07:16:45;100633.31;;;5.23;100.00
76687;BME280;65615;47.378;19.344;2024-03-08T07:20:50;100625.72;;;5.31;100.00
76687;BME280;65615;47.378;19.344;2024-03-08T07:24:53;100636.56;;;5.27;100.00
76687;BME280;65615;47.378;19.344;2024-03-08T07:29:19;100633.03;;;5.39;100.00
76687;BME280;65615;47.378;19.344;2024-03-08T07:33:22;100639.66;;;5.21;100.00
76687;BME280;65615;47.378;19.344;2024-03-08T07:37:26;100635.91;;;5.47;100.00
76687;BME280;65615;47.378;19.344;2024-03-08T07:41:30;100639.34;;;5.47;100.00
76687;BME280;65615;47.378;19.344;2024-03-08T07:46:16;100639.00;;;5.52;100.00
76687;BME280;65615;47.378;19.344;2024-03-08T07:50:21;100645.72;;;5.78;100.00
76687;BME280;65615;47.378;19.344;2024-03-08T07:54:25;100642.16;;;5.79;100.00
76687;BME280;65615;47.378;19.344;2024-03-08T07:58:29;100639.34;;;5.93;100.00
76687;BME280;65615;47.378;19.344;2024-03-08T08:02:36;100642.31;;;5.88;100.00
76687;BME280;65615;47.378;19.344;2024-03-08T08:06:43;100649.84;;;6.37;100.00
76687;BME280;65615;47.378;19.344;2024-03-08T08:10:47;100648.41;;;6.33;100.00
76687;BME280;65615;47.378;19.344;2024-03-08T08:14:51;100642.22;;;6.23;100.00
76687;BME280;65615;47.378;19.344;2024-03-08T08:18:57;100646.72;;;6.32;100.00
76687;BME280;65615;47.378;19.344;2024-03-08T08:23:11;100651.44;;;6.60;100.00
76687;BME280;65615;47.378;19.344;2024-03-08T08:27:30;100652.91;;;6.42;100.00
76687;BME280;65615;47.378;19.344;2024-03-08T08:32:00;100642.38;;;6.64;100.00
76687;BME280;65615;47.378;19.344;2024-03-08T08:36:39;100645.94;;;6.63;100.00
76687;BME280;65615;47.378;19.344;2024-03-08T08:41:44;100651.88;;;6.76;100.00
76687;BME280;65615;47.378;19.344;2024-03-08T08:47:00;100651.94;;;6.54;100.00
76687;BME280;65615;47.378;19.344;2024-03-08T08:51:19;100644.28;;;6.62;100.00
76687;BME280;65615;47.378;19.344;2024-03-08T08:55:23;100652.47;;;6.80;100.00
76687;BME280;65615;47.378;19.344;2024-03-08T08:59:29;100646.09;;;6.94;100.00
76687;BME280;65615;47.378;19.344;2024-03-08T09:03:33;100650.13;;;6.98;100.00
76687;BME280;65615;47.378;19.344;2024-03-08T09:07:37;100644.69;;;6.89;100.00
76687;BME280;65615;47.378;19.344;2024-03-08T09:11:40;100645.38;;;6.92;100.00
76687;BME280;65615;47.378;19.344;2024-03-08T09:15:44;100646.81;;;6.96;100.00
76687;BME280;65615;47.378;19.344;2024-03-08T09:19:48;100638.13;;;6.84;100.00
76687;BME280;65615;47.378;19.344;2024-03-08T09:23:53;100644.56;;;6.91;100.00
76687;BME280;65615;47.378;19.344;2024-03-08T09:27:56;100640.53;;;6.87;100.00
76687;BME280;65615;47.378;19.344;2024-03-08T09:32:00;100641.31;;;6.99;100.00
76687;BME280;65615;47.378;19.344;2024-03-08T09:36:08;100642.19;;;6.88;100.00
76687;BME280;65615;47.378;19.344;2024-03-08T09:40:30;100644.59;;;7.12;100.00
76687;BME280;65615;47.378;19.344;2024-03-08T09:44:33;100644.25;;;7.37;100.00
76687;BME280;65615;47.378;19.344;2024-03-08T09:48:37;100639.00;;;7.57;100.00
76687;BME280;65615;47.378;19.344;2024-03-08T09:52:43;100632.06;;;7.36;100.00
76687;BME280;65615;47.378;19.344;2024-03-08T09:56:49;100638.41;;;7.54;100.00
76687;BME280;65615;47.378;19.344;2024-03-08T10:00:59;100628.16;;;7.51;100.00
76687;BME280;65615;47.378;19.344;2024-03-08T10:05:07;100645.72;;;7.30;100.00
76687;BME280;65615;47.378;19.344;2024-03-08T10:09:15;100647.31;;;7.42;100.00
76687;BME280;65615;47.378;19.344;2024-03-08T10:13:24;100641.34;;;7.40;100.00
76687;BME280;65615;47.378;19.344;2024-03-08T10:17:47;100648.28;;;7.41;100.00
76687;BME280;65615;47.378;19.344;2024-03-08T10:21:52;100649.44;;;7.48;100.00
76687;BME280;65615;47.378;19.344;2024-03-08T10:26:15;100646.13;;;7.97;100.00
76687;BME280;65615;47.378;19.344;2024-03-08T10:30:19;100646.09;;;7.87;100.00
76687;BME280;65615;47.378;19.344;2024-03-08T10:34:25;100644.16;;;7.89;100.00
76687;BME280;65615;47.378;19.344;2024-03-08T10:38:31;100643.66;;;7.95;100.00
76687;BME280;65615;47.378;19.344;2024-03-08T10:42:43;100641.19;;;7.73;100.00
76687;BME280;65615;47.378;19.344;2024-03-08T10:51:04;100636.25;;;7.59;100.00
76687;BME280;65615;47.378;19.344;2024-03-08T10:55:09;100639.94;;;7.77;100.00
76687;BME280;65615;47.378;19.344;2024-03-08T10:59:15;100639.94;;;7.77;100.00
76687;BME280;65615;47.378;19.344;2024-03-08T11:03:52;100636.34;;;8.29;100.00
76687;BME280;65615;47.378;19.344;2024-03-08T11:07:56;100632.19;;;8.36;100.00
76687;BME280;65615;47.378;19.344;2024-03-08T11:12:20;100632.78;;;8.39;100.00
76687;BME280;65615;47.378;19.344;2024-03-08T11:20:30;100627.75;;;8.36;100.00
76687;BME280;65615;47.378;19.344;2024-03-08T11:24:38;100623.34;;;8.46;100.00
76687;BME280;65615;47.378;19.344;2024-03-08T11:28:43;100619.09;;;8.65;100.00
76687;BME280;65615;47.378;19.344;2024-03-08T11:32:46;100612.63;;;8.88;100.00
76687;BME280;65615;47.378;19.344;2024-03-08T11:36:53;100612.91;;;8.85;100.00
76687;BME280;65615;47.378;19.344;2024-03-08T11:40:58;100608.75;;;8.92;100.00
76687;BME280;65615;47.378;19.344;2024-03-08T11:45:08;100609.25;;;8.67;100.00
76687;BME280;65615;47.378;19.344;2024-03-08T11:49:12;100609.25;;;8.57;100.00
76687;BME280;65615;47.378;19.344;2024-03-08T11:53:16;100613.37;;;8.40;100.00
76687;BME280;65615;47.378;19.344;2024-03-08T11:57:20;100611.28;;;8.44;100.00
76687;BME280;65615;47.378;19.344;2024-03-08T12:01:25;100590.97;;;8.84;100.00
76687;BME280;65615;47.378;19.344;2024-03-08T12:05:29;100604.97;;;9.04;100.00
76687;BME280;65615;47.378;19.344;2024-03-08T12:09:36;100599.84;;;9.12;100.00
76687;BME280;65615;47.378;19.344;2024-03-08T12:13:41;100594.84;;;8.80;100.00
76687;BME280;65615;47.378;19.344;2024-03-08T12:17:45;100598.47;;;8.70;100.00
76687;BME280;65615;47.378;19.344;2024-03-08T12:21:51;100598.47;;;8.70;100.00
76687;BME280;65615;47.378;19.344;2024-03-08T12:25:53;100585.41;;;8.68;100.00
76687;BME280;65615;47.378;19.344;2024-03-08T12:29:57;100591.53;;;8.59;100.00
76687;BME280;65615;47.378;19.344;2024-03-08T12:34:00;100583.47;;;8.70;100.00
76687;BME280;65615;47.378;19.344;2024-03-08T12:38:04;100580.69;;;8.52;100.00
76687;BME280;65615;47.378;19.344;2024-03-08T12:42:09;100590.56;;;8.79;100.00
76687;BME280;65615;47.378;19.344;2024-03-08T12:46:15;100585.84;;;8.64;100.00
76687;BME280;65615;47.378;19.344;2024-03-08T12:50:18;100581.41;;;8.64;100.00
76687;BME280;65615;47.378;19.344;2024-03-08T12:54:22;100579.59;;;8.65;100.00
76687;BME280;65615;47.378;19.344;2024-03-08T12:58:26;100578.25;;;8.80;100.00
76687;BME280;65615;47.378;19.344;2024-03-08T13:02:30;100574.75;;;8.60;100.00
76687;BME280;65615;47.378;19.344;2024-03-08T13:06:35;100571.59;;;8.85;100.00
76687;BME280;65615;47.378;19.344;2024-03-08T13:10:42;100565.75;;;8.63;100.00
76687;BME280;65615;47.378;19.344;2024-03-08T13:14:47;100567.13;;;8.57;100.00
76687;BME280;65615;47.378;19.344;2024-03-08T13:18:50;100561.25;;;8.34;100.00
76687;BME280;65615;47.378;19.344;2024-03-08T13:22:56;100558.69;;;8.63;100.00
76687;BME280;65615;47.378;19.344;2024-03-08T13:27:01;100559.09;;;8.49;100.00
76687;BME280;65615;47.378;19.344;2024-03-08T13:31:04;100556.97;;;8.33;100.00
76687;BME280;65615;47.378;19.344;2024-03-08T13:35:13;100558.22;;;8.39;100.00
76687;BME280;65615;47.378;19.344;2024-03-08T13:39:16;100554.19;;;8.25;100.00
76687;BME280;65615;47.378;19.344;2024-03-08T13:43:19;100552.06;;;8.19;100.00
76687;BME280;65615;47.378;19.344;2024-03-08T13:47:22;100551.31;;;8.47;100.00
76687;BME280;65615;47.378;19.344;2024-03-08T13:51:27;100540.38;;;7.93;100.00
76687;BME280;65615;47.378;19.344;2024-03-08T13:55:30;100541.50;;;8.10;100.00
76687;BME280;65615;47.378;19.344;2024-03-08T13:59:34;100541.22;;;8.03;100.00
76687;BME280;65615;47.378;19.344;2024-03-08T14:03:38;100541.22;;;8.03;100.00
76687;BME280;65615;47.378;19.344;2024-03-08T14:07:45;100539.31;;;8.24;100.00
76687;BME280;65615;47.378;19.344;2024-03-08T14:11:52;100535.97;;;8.03;100.00
76687;BME280;65615;47.378;19.344;2024-03-08T14:15:56;100538.25;;;7.87;100.00
76687;BME280;65615;47.378;19.344;2024-03-08T14:19:59;100540.38;;;7.93;100.00
76687;BME280;65615;47.378;19.344;2024-03-08T14:24:03;100542.75;;;7.75;100.00
76687;BME280;65615;47.378;19.344;2024-03-08T14:28:07;100541.75;;;7.97;100.00
76687;BME280;65615;47.378;19.344;2024-03-08T14:32:10;100543.62;;;7.86;100.00
76687;BME280;65615;47.378;19.344;2024-03-08T14:36:15;100534.78;;;7.77;100.00
76687;BME280;65615;47.378;19.344;2024-03-08T14:40:23;100536.00;;;7.73;100.00
76687;BME280;65615;47.378;19.344;2024-03-08T14:44:26;100526.59;;;7.50;100.00
76687;BME280;65615;47.378;19.344;2024-03-08T14:48:29;100526.09;;;7.56;100.00
76687;BME280;65615;47.378;19.344;2024-03-08T14:52:32;100529.50;;;7.77;100.00
76687;BME280;65615;47.378;19.344;2024-03-08T14:56:37;100522.31;;;7.79;100.00
76687;BME280;65615;47.378;19.344;2024-03-08T15:00:40;100519.78;;;7.68;100.00
76687;BME280;65615;47.378;19.344;2024-03-08T15:04:47;100518.72;;;7.50;100.00
76687;BME280;65615;47.378;19.344;2024-03-08T15:08:58;100520.81;;;7.56;100.00
76687;BME280;65615;47.378;19.344;2024-03-08T15:13:02;100513.53;;;7.29;100.00
76687;BME280;65615;47.378;19.344;2024-03-08T15:17:10;100516.38;;;7.47;100.00
76687;BME280;65615;47.378;19.344;2024-03-08T15:21:23;100521.06;;;7.43;100.00
76687;BME280;65615;47.378;19.344;2024-03-08T15:25:28;100513.03;;;7.45;100.00
76687;BME280;65615;47.378;19.344;2024-03-08T15:29:32;100516.53;;;7.25;100.00
76687;BME280;65615;47.378;19.344;2024-03-08T15:33:38;100512.16;;;7.35;100.00
76687;BME280;65615;47.378;19.344;2024-03-08T15:37:49;100517.28;;;7.36;100.00
76687;BME280;65615;47.378;19.344;2024-03-08T15:41:51;100519.19;;;7.55;100.00
76687;BME280;65615;47.378;19.344;2024-03-08T15:45:57;100518.81;;;7.39;100.00
76687;BME280;65615;47.378;19.344;2024-03-08T15:50:01;100514.84;;;7.24;100.00
76687;BME280;65615;47.378;19.344;2024-03-08T15:54:06;100525.34;;;7.24;100.00
76687;BME280;65615;47.378;19.344;2024-03-08T15:58:10;100524.28;;;7.26;100.00
76687;BME280;65615;47.378;19.344;2024-03-08T16:02:16;100523.00;;;7.21;100.00
76687;BME280;65615;47.378;19.344;2024-03-08T16:06:22;100520.62;;;7.18;100.00
76687;BME280;65615;47.378;19.344;2024-03-08T16:10:27;100520.38;;;7.21;100.00
